Time;durP1;ratioP1;P1;durP2;ratioP2;P2;SDS_P1;SDS_P2;PMS_P1;PMS_P2;Temp;Humidity;BMP_temperature;BMP_pressure;BME280_temperature;BME280_humidity;BME280_pressure;Samples;Min_cycle;Max_cycle;Signal;HPM_P1;HPM_P2
2021/01/29 00:02:20;;;;;;;;;4.00;4.00;;;;;12.91;45.59;96798.75;4726175;28;103667;-81
2021/01/29 00:04:47;;;;;;;;;6.00;5.75;;;;;12.88;46.31;96789.22;4737892;28;102320;-81
2021/01/29 00:07:14;;;;;;;;;7.50;5.00;;;;;12.89;45.81;96787.31;4732280;28;102632;-81
2021/01/29 00:09:40;;;;;;;;;6.00;4.75;;;;;12.86;45.99;96774.28;4725983;28;106636;-81
2021/01/29 00:12:07;;;;;;;;;6.00;5.00;;;;;12.87;46.27;96779.47;4723725;28;102348;-81
2021/01/29 00:14:34;;;;;;;;;4.00;3.00;;;;;12.85;45.49;96764.50;4729619;28;102715;-81
2021/01/29 00:17:01;;;;;;;;;4.25;4.00;;;;;12.84;46.46;96769.09;4732645;28;103043;-81
2021/01/29 00:19:28;;;;;;;;;4.25;4.00;;;;;12.84;46.15;96771.00;4724302;28;103197;-81
2021/01/29 00:21:55;;;;;;;;;5.50;4.75;;;;;12.82;45.73;96765.03;4735223;28;104400;-81
2021/01/29 00:24:22;;;;;;;;;5.25;4.50;;;;;12.81;45.71;96775.06;4721212;28;102601;-81
2021/01/29 00:26:48;;;;;;;;;5.00;4.50;;;;;12.80;45.79;96788.88;4726205;28;104217;-81
2021/01/29 00:29:15;;;;;;;;;5.25;4.00;;;;;12.77;45.90;96795.66;4735150;28;104313;-81
2021/01/29 00:31:42;;;;;;;;;4.75;4.75;;;;;12.76;45.46;96793.19;4709488;28;103743;-81
2021/01/29 00:34:09;;;;;;;;;6.00;5.00;;;;;12.76;45.95;96790.47;4720750;28;102476;-81
2021/01/29 00:36:35;;;;;;;;;5.50;4.50;;;;;12.74;45.49;96788.00;4730154;29;102545;-81
2021/01/29 00:39:03;;;;;;;;;5.50;5.50;;;;;12.72;46.27;96792.88;4733347;28;103719;-81
2021/01/29 00:41:30;;;;;;;;;6.50;4.50;;;;;12.73;46.14;96783.69;4733534;28;103061;-81
2021/01/29 00:43:57;;;;;;;;;5.75;4.75;;;;;12.69;46.20;96782.56;4737442;28;102501;-81
2021/01/29 00:46:23;;;;;;;;;4.50;4.00;;;;;12.69;45.61;96795.31;4736273;28;102482;-81
2021/01/29 00:48:50;;;;;;;;;5.50;5.50;;;;;12.69;45.75;96800.72;4739736;28;103818;-81
2021/01/29 00:51:17;;;;;;;;;4.75;4.00;;;;;12.67;46.50;96794.72;4726725;28;102444;-81
2021/01/29 00:53:44;;;;;;;;;5.00;4.00;;;;;12.65;45.59;96805.84;4736075;28;102616;-81
2021/01/29 00:56:10;;;;;;;;;3.75;3.75;;;;;12.64;45.72;96806.09;4740541;28;102737;-81
2021/01/29 00:58:37;;;;;;;;;3.50;3.00;;;;;12.63;46.21;96809.88;4727827;28;103339;-81
2021/01/29 01:01:04;;;;;;;;;4.50;4.50;;;;;12.62;45.55;96798.22;4736483;28;102461;-81
2021/01/29 01:03:31;;;;;;;;;4.50;3.50;;;;;12.62;45.43;96800.09;4727905;28;104779;-81
2021/01/29 01:05:58;;;;;;;;;7.25;5.50;;;;;12.61;45.86;96806.63;4727066;28;102450;-81
2021/01/29 01:08:27;;;;;;;;;4.50;4.00;;;;;12.60;46.29;96807.69;4719497;28;105367;-81
2021/01/29 01:10:57;;;;;;;;;5.50;5.50;;;;;12.59;45.35;96822.31;4716023;28;102472;-81
2021/01/29 01:13:27;;;;;;;;;4.00;4.00;;;;;12.59;45.51;96816.91;4737251;28;102579;-81
2021/01/29 01:15:59;;;;;;;;;6.00;4.00;;;;;12.56;46.16;96820.13;4730932;28;104997;-81
2021/01/29 01:18:30;;;;;;;;;4.25;3.75;;;;;12.55;45.95;96823.91;4712527;28;104324;-81
2021/01/29 01:21:00;;;;;;;;;5.25;5.25;;;;;12.55;46.34;96827.44;4711583;29;102933;-81
2021/01/29 01:23:30;;;;;;;;;6.00;4.50;;;;;12.53;45.21;96827.69;4709872;29;103111;-81
2021/01/29 01:26:00;;;;;;;;;5.00;5.00;;;;;12.51;46.26;96829.84;4711347;29;103026;-81
2021/01/29 01:28:30;;;;;;;;;4.00;4.00;;;;;12.51;46.24;96840.69;4704745;29;103632;-81
2021/01/29 01:31:02;;;;;;;;;3.50;3.50;;;;;12.50;45.62;96830.94;4708911;29;103059;-81
2021/01/29 01:33:33;;;;;;;;;5.75;4.00;;;;;12.49;45.96;96831.16;4715400;29;103746;-81
2021/01/29 01:36:03;;;;;;;;;3.50;3.00;;;;;12.47;46.28;96817.88;4711494;29;103015;-81
2021/01/29 01:38:30;;;;;;;;;5.25;3.50;;;;;12.45;45.93;96811.91;4710597;29;103996;-81
2021/01/29 01:40:56;;;;;;;;;5.00;3.50;;;;;12.47;46.27;96822.50;4719688;29;102809;-81
2021/01/29 01:43:23;;;;;;;;;5.00;4.00;;;;;12.45;46.03;96814.59;4709888;29;102932;-81
2021/01/29 01:46:07;;;;;;;;;5.00;5.00;;;;;12.46;45.46;96821.66;4718400;29;102637;-81
2021/01/29 01:48:39;;;;;;;;;3.25;3.00;;;;;12.44;45.67;96825.69;4715747;29;104236;-81
2021/01/29 01:51:06;;;;;;;;;5.25;4.25;;;;;12.43;45.88;96826.75;4708158;29;102856;-81
2021/01/29 01:53:44;;;;;;;;;3.50;3.50;;;;;12.41;45.80;96824.31;4708309;29;104862;-81
2021/01/29 01:56:16;;;;;;;;;5.50;5.50;;;;;12.41;45.52;96832.47;4699227;29;103243;-81
2021/01/29 01:58:44;;;;;;;;;4.00;3.75;;;;;12.40;46.06;96838.13;4725101;29;104634;-81
2021/01/29 02:01:11;;;;;;;;;4.00;3.75;;;;;12.39;45.76;96836.47;4713916;29;104383;-81
2021/01/29 02:03:38;;;;;;;;;5.00;3.75;;;;;12.39;45.76;96845.44;4706103;29;104601;-81
2021/01/29 02:06:05;;;;;;;;;5.00;5.00;;;;;12.38;45.50;96851.91;4726468;29;102891;-81
2021/01/29 02:08:36;;;;;;;;;4.00;3.50;;;;;12.37;45.95;96855.72;4708121;29;104192;-81
2021/01/29 02:11:07;;;;;;;;;4.25;3.75;;;;;12.36;45.83;96851.38;4708886;29;102904;-82
2021/01/29 02:13:37;;;;;;;;;3.00;3.00;;;;;12.37;45.66;96852.19;4729196;29;103202;-81
2021/01/29 02:16:47;;;;;;;;;4.00;4.00;;;;;12.34;45.67;96860.81;4709187;29;103008;-81
2021/01/29 02:20:02;;;;;;;;;5.00;4.00;;;;;12.33;46.05;96870.88;4655906;29;109332;-81
2021/01/29 02:23:00;;;;;;;;;3.25;3.00;;;;;12.32;46.20;96863.81;4570950;29;105156;-81
2021/01/29 02:25:58;;;;;;;;;6.50;5.50;;;;;12.31;45.97;96861.34;4660488;29;103151;-81
2021/01/29 02:29:08;;;;;;;;;3.75;3.25;;;;;12.30;45.47;96855.09;4657659;29;103089;-81
2021/01/29 02:32:15;;;;;;;;;3.75;3.75;;;;;12.30;45.81;96865.94;4615239;29;108800;-81
2021/01/29 02:34:58;;;;;;;;;4.00;3.75;;;;;12.30;45.44;96870.53;4639092;29;104048;-81
2021/01/29 02:37:58;;;;;;;;;4.50;4.00;;;;;12.28;45.96;96872.69;4636334;29;103082;-81
2021/01/29 02:40:39;;;;;;;;;4.75;4.00;;;;;12.25;45.53;96874.00;4658381;29;103411;-81
2021/01/29 02:43:48;;;;;;;;;4.00;4.00;;;;;12.26;45.99;96875.66;4718948;29;104811;-82
2021/01/29 02:46:30;;;;;;;;;5.00;4.25;;;;;12.25;46.02;96873.19;4642599;29;103120;-81
2021/01/29 02:49:15;;;;;;;;;5.00;4.00;;;;;12.24;45.69;96866.16;4624816;29;102989;-81
2021/01/29 02:51:53;;;;;;;;;3.50;3.25;;;;;12.23;45.84;96859.91;4711256;29;102883;-81
2021/01/29 02:54:35;;;;;;;;;3.50;3.00;;;;;12.23;46.05;96870.75;4712530;29;109437;-79
2021/01/29 02:57:04;;;;;;;;;3.50;3.00;;;;;12.22;46.02;96871.00;4678744;29;102965;-81
2021/01/29 02:59:36;;;;;;;;;4.75;4.00;;;;;12.20;46.03;96886.69;4715479;29;102949;-82
2021/01/29 03:02:12;;;;;;;;;4.00;3.00;;;;;12.19;45.92;96885.88;4713631;29;103021;-82
2021/01/29 03:05:02;;;;;;;;;5.00;4.25;;;;;12.19;45.41;96888.59;4714492;29;104201;-81
2021/01/29 03:07:39;;;;;;;;;4.50;3.00;;;;;12.18;46.05;96888.81;4651379;29;103008;-81
2021/01/29 03:10:14;;;;;;;;;3.00;2.50;;;;;12.17;46.16;96893.44;4711142;29;102941;-81
2021/01/29 03:12:48;;;;;;;;;4.00;3.00;;;;;12.16;45.56;96891.00;4700631;29;103112;-81
2021/01/29 03:15:25;;;;;;;;;4.00;2.75;;;;;12.15;45.51;96890.16;4701107;29;111674;-81
2021/01/29 03:17:54;;;;;;;;;3.25;2.75;;;;;12.14;46.17;96888.53;4712550;29;102803;-81
2021/01/29 03:20:26;;;;;;;;;2.00;2.00;;;;;12.13;45.53;96889.59;4713727;29;102841;-81
2021/01/29 03:22:59;;;;;;;;;3.00;3.00;;;;;12.13;45.93;96896.88;4714283;29;104577;-81
2021/01/29 03:25:33;;;;;;;;;3.00;3.00;;;;;12.11;46.16;96899.88;4726714;29;104812;-81
2021/01/29 03:28:08;;;;;;;;;3.50;3.00;;;;;12.13;45.83;96911.25;4716017;29;102862;-81
2021/01/29 03:30:36;;;;;;;;;3.00;3.00;;;;;12.12;46.02;96916.91;4709802;29;103235;-81
2021/01/29 03:33:03;;;;;;;;;2.75;2.75;;;;;12.10;45.86;96917.19;4717665;29;103206;-81
2021/01/29 03:35:37;;;;;;;;;3.00;3.00;;;;;12.10;45.85;96913.66;4693149;29;104374;-81
2021/01/29 03:38:09;;;;;;;;;3.00;3.00;;;;;12.09;45.64;96920.97;4700041;29;102988;-81
2021/01/29 03:40:40;;;;;;;;;3.50;2.75;;;;;12.08;45.63;96922.84;4715293;29;102899;-81
2021/01/29 03:43:30;;;;;;;;;3.75;3.00;;;;;12.05;45.66;96923.38;4692827;29;102847;-81
2021/01/29 03:46:29;;;;;;;;;2.50;2.25;;;;;12.07;45.69;96920.38;4609300;29;108908;-81
2021/01/29 03:49:03;;;;;;;;;2.25;2.00;;;;;12.05;45.42;96911.72;4663046;29;103041;-81
2021/01/29 03:51:55;;;;;;;;;4.00;3.00;;;;;12.04;45.76;96910.06;4710700;29;103082;-81
2021/01/29 03:54:26;;;;;;;;;1.00;1.00;;;;;12.02;46.08;96915.72;4709151;29;102980;-81
2021/01/29 03:56:56;;;;;;;;;2.75;2.50;;;;;12.02;45.74;96907.59;4714097;29;104537;-81
2021/01/29 04:00:01;;;;;;;;;3.25;2.50;;;;;12.02;45.78;96912.22;4703541;29;103273;-81
2021/01/29 04:02:53;;;;;;;;;6.25;4.00;;;;;12.00;45.23;96906.22;4618692;29;103111;-81
2021/01/29 04:05:22;;;;;;;;;3.25;2.00;;;;;12.01;45.30;96916.00;4711990;29;104811;-81
2021/01/29 04:07:50;;;;;;;;;2.00;2.00;;;;;11.98;45.72;96914.59;4697500;29;109262;-81
2021/01/29 04:10:30;;;;;;;;;3.00;3.00;;;;;11.97;46.15;96925.69;4706510;29;104793;-81
2021/01/29 04:13:13;;;;;;;;;1.50;1.50;;;;;11.99;45.60;96935.19;4720740;29;102907;-81
2021/01/29 04:15:49;;;;;;;;;2.00;2.00;;;;;12.02;45.86;96933.88;4700836;29;104000;-81
2021/01/29 04:18:26;;;;;;;;;3.25;2.00;;;;;12.04;45.96;96954.22;4712144;29;110085;-82
2021/01/29 04:21:01;;;;;;;;;2.25;1.50;;;;;12.07;46.01;96952.91;4714227;29;104964;-81
2021/01/29 04:23:46;;;;;;;;;2.00;2.00;;;;;12.10;46.10;96951.59;4695367;29;102864;-81
2021/01/29 04:26:24;;;;;;;;;2.00;2.00;;;;;12.12;45.08;96954.84;4699435;29;103045;-81
2021/01/29 04:29:02;;;;;;;;;2.50;2.00;;;;;12.13;45.64;96937.53;4729941;29;109085;-81
2021/01/29 04:31:29;;;;;;;;;1.50;1.50;;;;;12.16;46.06;96947.88;4692244;29;102941;-81
2021/01/29 04:33:59;;;;;;;;;2.75;2.50;;;;;12.17;45.42;96950.31;4721423;29;102918;-81
2021/01/29 04:36:27;;;;;;;;;1.75;1.75;;;;;12.18;45.45;96938.44;4698460;29;104131;-81
2021/01/29 04:39:02;;;;;;;;;1.00;1.00;;;;;12.19;45.51;96940.06;4710218;29;103688;-81
2021/01/29 04:41:37;;;;;;;;;2.00;2.00;;;;;12.20;44.77;96936.28;4712412;29;103024;-81
2021/01/29 04:44:37;;;;;;;;;2.00;1.25;;;;;12.22;45.50;96938.72;4700384;29;103319;-81
2021/01/29 04:47:35;;;;;;;;;2.50;1.25;;;;;12.21;45.32;96931.66;4595345;29;103777;-81
2021/01/29 04:50:14;;;;;;;;;3.25;2.75;;;;;12.21;45.75;96937.91;4636734;29;109116;-81
2021/01/29 04:53:03;;;;;;;;;1.00;1.00;;;;;12.20;44.86;96930.88;4717740;29;102986;-81
2021/01/29 04:55:54;;;;;;;;;2.00;2.00;;;;;12.21;44.79;96932.50;4618503;29;102946;-81
2021/01/29 04:58:26;;;;;;;;;3.50;1.75;;;;;12.21;45.46;96931.66;4709985;29;103115;-81
2021/01/29 05:01:22;;;;;;;;;2.75;0.75;;;;;12.19;45.17;96923.81;4730653;29;104086;-81
2021/01/29 05:04:11;;;;;;;;;1.00;1.00;;;;;12.20;45.14;96925.47;4697383;29;103096;-81
2021/01/29 05:07:11;;;;;;;;;1.00;1.00;;;;;12.20;45.17;96924.63;4654377;29;103207;-81
2021/01/29 05:09:46;;;;;;;;;1.00;1.00;;;;;12.20;45.04;96928.16;4650170;29;103173;-81
2021/01/29 05:12:34;;;;;;;;;1.75;1.75;;;;;12.20;44.66;96928.16;4703916;29;104949;-81
2021/01/29 05:15:31;;;;;;;;;2.00;1.50;;;;;12.20;44.93;96928.16;4642851;29;104561;-81
2021/01/29 05:18:29;;;;;;;;;2.00;2.00;;;;;12.19;45.26;96928.41;4646128;29;103480;-81
2021/01/29 05:21:17;;;;;;;;;1.00;1.00;;;;;12.17;44.87;96935.94;4662885;29;103138;-81
2021/01/29 05:23:56;;;;;;;;;1.75;1.75;;;;;12.16;44.66;96909.97;4717023;29;104174;-81
2021/01/29 05:26:58;;;;;;;;;1.25;1.00;;;;;12.15;45.25;96921.84;4710250;29;102849;-81
2021/01/29 05:30:02;;;;;;;;;1.50;1.50;;;;;12.13;45.14;96930.22;4720133;29;102956;-81
2021/01/29 05:32:31;;;;;;;;;4.00;1.25;;;;;12.13;45.40;96929.41;4668479;29;102893;-81
2021/01/29 05:35:31;;;;;;;;;2.00;2.00;;;;;12.09;45.27;96942.63;4723680;28;103951;-81
2021/01/29 05:38:26;;;;;;;;;1.50;1.50;;;;;12.11;45.01;96943.22;4646924;29;103347;-81
2021/01/29 05:41:01;;;;;;;;;1.00;1.00;;;;;12.08;45.35;96924.75;4714679;29;102742;-81
2021/01/29 05:43:46;;;;;;;;;1.00;1.00;;;;;12.08;45.38;96927.44;4722169;29;102902;-81
2021/01/29 05:46:26;;;;;;;;;1.00;1.00;;;;;12.06;44.95;96929.59;4717448;29;104513;-81
2021/01/29 05:48:53;;;;;;;;;2.00;1.25;;;;;12.06;45.17;96935.84;4733984;29;103456;-81
2021/01/29 05:51:50;;;;;;;;;1.00;1.00;;;;;12.04;45.19;96937.16;4718758;29;102891;-81
2021/01/29 05:54:35;;;;;;;;;1.00;1.00;;;;;12.05;45.12;96931.50;4603018;29;102875;-81
2021/01/29 05:57:23;;;;;;;;;2.75;2.00;;;;;12.03;44.83;96941.75;4656099;29;109144;-81
2021/01/29 06:00:19;;;;;;;;;2.00;1.25;;;;;12.03;45.66;96935.50;4721483;29;102732;-81
2021/01/29 06:03:27;;;;;;;;;1.00;1.00;;;;;12.01;45.38;96937.66;4652289;29;111783;-81
2021/01/29 06:06:02;;;;;;;;;3.00;2.00;;;;;12.00;44.75;96942.25;4646580;29;103063;-81
2021/01/29 06:09:04;;;;;;;;;1.00;1.00;;;;;12.00;45.11;96936.84;4713674;29;104027;-81
2021/01/29 06:11:47;;;;;;;;;0.50;0.50;;;;;11.99;45.20;96947.91;4665314;29;105516;-81
2021/01/29 06:14:40;;;;;;;;;2.00;1.00;;;;;11.97;45.00;96948.19;4714963;29;103249;-81
2021/01/29 06:17:36;;;;;;;;;1.25;1.25;;;;;11.96;44.76;96940.31;4650272;29;103068;-81
2021/01/29 06:20:31;;;;;;;;;2.00;1.75;;;;;11.96;44.84;96924.03;4659518;29;110155;-81
2021/01/29 06:23:07;;;;;;;;;1.00;1.00;;;;;11.95;45.13;96923.22;4666188;29;104573;-81
2021/01/29 06:25:40;;;;;;;;;2.00;1.00;;;;;11.94;45.15;96932.41;4715924;29;102744;-81
2021/01/29 06:28:25;;;;;;;;;1.50;1.00;;;;;11.93;45.05;96946.22;4735648;29;104272;-81
2021/01/29 06:31:10;;;;;;;;;1.75;1.75;;;;;11.93;45.31;96935.41;4719321;29;108358;-80
2021/01/29 06:33:55;;;;;;;;;2.00;1.00;;;;;11.93;45.47;96938.09;4714976;29;102742;-81
2021/01/29 06:37:04;;;;;;;;;1.00;1.00;;;;;11.90;45.07;96939.41;4714932;29;102894;-80
2021/01/29 06:40:29;;;;;;;;;1.00;1.00;;;;;11.89;45.32;96939.66;4651898;29;102975;-81
2021/01/29 06:43:05;;;;;;;;;1.50;1.25;;;;;11.89;44.88;96940.47;4615803;29;109261;-81
2021/01/29 06:45:49;;;;;;;;;1.25;1.00;;;;;11.88;45.51;96940.72;4684773;29;103041;-81
2021/01/29 06:48:22;;;;;;;;;1.25;1.00;;;;;11.88;45.13;96938.84;4694211;29;106313;-81
2021/01/29 06:50:55;;;;;;;;;3.75;2.00;;;;;11.87;45.33;96930.97;4722681;29;102820;-81
2021/01/29 06:53:51;;;;;;;;;4.00;1.00;;;;;11.85;45.31;96939.31;4717090;29;108769;-80
2021/01/29 06:56:28;;;;;;;;;0.50;0.50;;;;;11.84;45.11;96936.88;4676457;29;103062;-81
2021/01/29 06:59:01;;;;;;;;;1.00;1.00;;;;;11.85;45.23;96927.66;4732382;29;102835;-81
2021/01/29 07:01:43;;;;;;;;;1.25;1.00;;;;;11.85;44.96;96922.25;4721924;29;102815;-81
2021/01/29 07:04:23;;;;;;;;;1.50;1.00;;;;;11.83;45.17;96919.00;4716117;28;104692;-81
2021/01/29 07:07:26;;;;;;;;;2.00;2.00;;;;;11.83;45.45;96902.75;4723935;29;103302;-81
2021/01/29 07:09:58;;;;;;;;;1.25;1.25;;;;;11.79;45.07;96899.72;4667689;29;102950;-80
2021/01/29 07:12:32;;;;;;;;;1.25;1.25;;;;;11.80;45.19;96914.06;4721664;29;105150;-81
2021/01/29 07:15:25;;;;;;;;;2.00;1.50;;;;;11.80;45.54;96919.47;4726932;29;104202;-81
2021/01/29 07:18:10;;;;;;;;;1.00;1.00;;;;;11.78;44.59;96910.81;4718602;29;102849;-81
2021/01/29 07:20:39;;;;;;;;;3.00;2.00;;;;;11.78;45.25;96916.22;4712275;29;105030;-81
2021/01/29 07:23:26;;;;;;;;;1.00;1.00;;;;;11.79;45.20;96909.72;4722182;29;103590;-81
2021/01/29 07:26:30;;;;;;;;;1.50;1.50;;;;;11.78;44.96;96900.78;4721980;29;109714;-81
2021/01/29 07:29:21;;;;;;;;;1.25;1.00;;;;;11.77;45.32;96906.44;4653314;29;103101;-81
2021/01/29 07:31:54;;;;;;;;;1.75;1.25;;;;;11.77;45.45;96906.44;4721579;29;105118;-81
2021/01/29 07:34:24;;;;;;;;;1.00;1.00;;;;;11.75;44.99;96895.88;4733977;29;102851;-81
2021/01/29 07:37:12;;;;;;;;;2.00;2.00;;;;;11.76;45.32;96888.56;4714683;29;109062;-81
2021/01/29 07:39:49;;;;;;;;;2.00;2.00;;;;;11.76;45.06;96885.84;4668240;29;103033;-81
2021/01/29 07:42:34;;;;;;;;;1.00;1.00;;;;;11.76;45.28;96885.84;4702787;29;102815;-81
2021/01/29 07:45:26;;;;;;;;;2.00;2.00;;;;;11.75;44.97;96881.53;4641923;29;103853;-78
2021/01/29 07:48:26;;;;;;;;;1.00;1.00;;;;;11.75;44.93;96876.09;4711971;29;109637;-78
2021/01/29 07:50:57;;;;;;;;;1.00;0.50;;;;;11.74;45.40;96871.75;4705201;29;102978;-79
2021/01/29 07:53:56;;;;;;;;;1.00;1.00;;;;;11.74;45.49;96858.22;4689749;29;102949;-78
2021/01/29 07:57:01;;;;;;;;;2.00;1.00;;;;;11.73;45.16;96860.09;4708242;29;103837;-79
2021/01/29 07:59:40;;;;;;;;;3.00;1.25;;;;;11.73;45.22;96851.16;4663739;29;109642;-78
2021/01/29 08:03:00;;;;;;;;;1.75;1.25;;;;;11.73;45.40;96851.16;4715794;29;103346;-79
2021/01/29 08:05:47;;;;;;;;;1.00;1.00;;;;;11.70;45.34;96838.09;4630831;29;102982;-79
2021/01/29 08:08:26;;;;;;;;;2.75;2.00;;;;;11.74;45.21;96831.16;4704846;29;102968;-79
2021/01/29 08:10:54;;;;;;;;;1.00;1.00;;;;;11.71;45.09;96824.28;4708624;29;108440;-78
2021/01/29 08:13:41;;;;;;;;;2.75;1.00;;;;;11.71;45.31;96809.97;4720959;29;102908;-79
2021/01/29 08:16:39;;;;;;;;;2.00;2.00;;;;;11.72;45.24;96811.56;4642673;29;103574;-81
2021/01/29 08:19:07;;;;;;;;;1.00;1.00;;;;;11.71;45.07;96802.63;4670287;29;105085;-81
2021/01/29 08:21:52;;;;;;;;;2.00;1.75;;;;;11.72;44.85;96800.75;4719522;29;104328;-81
2021/01/29 08:24:57;;;;;;;;;2.00;1.75;;;;;11.70;45.44;96805.63;4722211;29;102822;-81
2021/01/29 08:27:43;;;;;;;;;2.00;2.00;;;;;11.69;45.01;96799.38;4664031;29;102987;-81
2021/01/29 08:30:31;;;;;;;;;2.75;1.00;;;;;11.67;45.19;96804.22;4722151;29;102862;-81
2021/01/29 08:32:57;;;;;;;;;2.00;2.00;;;;;11.70;45.27;96816.44;4716167;29;109224;-81
2021/01/29 08:35:47;;;;;;;;;1.75;1.75;;;;;11.70;45.33;96816.44;4718259;29;103022;-81
2021/01/29 08:38:35;;;;;;;;;2.75;2.75;;;;;11.71;45.39;96818.09;4709312;29;102907;-81
2021/01/29 08:41:39;;;;;;;;;3.00;2.00;;;;;11.70;45.25;96816.44;4632653;29;105388;-81
2021/01/29 08:44:24;;;;;;;;;1.50;1.50;;;;;11.70;45.29;96797.50;4663964;29;109574;-81
2021/01/29 08:47:20;;;;;;;;;2.00;1.50;;;;;11.69;45.12;96798.56;4731860;29;102989;-81
2021/01/29 08:50:17;;;;;;;;;1.50;1.00;;;;;11.66;45.00;96804.47;4646305;29;102959;-81
2021/01/29 08:53:21;;;;;;;;;2.50;2.50;;;;;11.69;45.28;96803.97;4650081;29;104024;-81
2021/01/29 08:56:29;;;;;;;;;1.75;1.00;;;;;11.68;45.51;96802.31;4662683;29;108804;-81
2021/01/29 08:59:09;;;;;;;;;1.25;1.25;;;;;11.69;45.02;96809.38;4630219;29;104091;-81
2021/01/29 09:01:46;;;;;;;;;1.00;1.00;;;;;11.69;45.01;96821.03;4723264;29;102852;-81
2021/01/29 09:04:25;;;;;;;;;2.00;1.00;;;;;11.69;45.11;96817.50;4717772;29;105198;-81
2021/01/29 09:07:02;;;;;;;;;3.25;3.00;;;;;11.69;45.19;96809.38;4627937;29;108800;-81
2021/01/29 09:09:31;;;;;;;;;2.00;2.00;;;;;11.68;45.30;96813.16;4710427;29;103317;-81
2021/01/29 09:12:01;;;;;;;;;1.25;1.25;;;;;11.68;45.24;96813.97;4719662;29;105484;-81
2021/01/29 09:14:39;;;;;;;;;2.00;2.00;;;;;11.68;45.05;96826.69;4721665;29;103002;-81
2021/01/29 09:17:10;;;;;;;;;1.75;1.75;;;;;11.69;45.35;96825.63;4718992;29;105455;-81
2021/01/29 09:19:39;;;;;;;;;2.50;1.00;;;;;11.67;45.34;96822.34;4721118;29;103110;-81
2021/01/29 09:22:37;;;;;;;;;1.00;1.00;;;;;11.69;45.28;96825.63;4734010;29;104979;-81
2021/01/29 09:25:35;;;;;;;;;2.00;2.00;;;;;11.70;45.31;96822.69;4636906;29;102963;-81
2021/01/29 09:28:21;;;;;;;;;0.50;0.50;;;;;11.70;45.37;96816.44;4649772;29;109255;-81
2021/01/29 09:31:09;;;;;;;;;3.00;2.00;;;;;11.70;44.91;96811.84;4725758;29;102996;-81
2021/01/29 09:33:47;;;;;;;;;2.75;2.25;;;;;11.71;45.06;96807.25;4640622;29;104809;-81
2021/01/29 09:36:18;;;;;;;;;1.00;1.00;;;;;11.70;45.07;96806.44;4704903;29;102898;-81
2021/01/29 09:39:01;;;;;;;;;2.00;2.00;;;;;11.70;45.21;96806.44;4725124;29;104525;-81
2021/01/29 09:41:33;;;;;;;;;1.00;1.00;;;;;11.70;44.93;96797.50;4715215;29;103416;-81
2021/01/29 09:44:05;;;;;;;;;2.00;2.00;;;;;11.70;45.14;96801.03;4723051;29;107679;-81
2021/01/29 09:46:36;;;;;;;;;2.00;2.00;;;;;11.71;45.14;96809.97;4726904;29;102851;-81
2021/01/29 09:49:10;;;;;;;;;1.25;1.00;;;;;11.71;45.39;96807.25;4716581;29;104426;-81
2021/01/29 09:51:47;;;;;;;;;2.00;1.00;;;;;11.70;45.22;96801.03;4708070;29;103953;-81
2021/01/29 09:54:37;;;;;;;;;2.00;2.00;;;;;11.72;45.24;96798.03;4721758;29;102896;-82
2021/01/29 09:57:06;;;;;;;;;2.50;2.00;;;;;11.71;44.63;96799.13;4672862;29;105042;-81
2021/01/29 09:59:41;;;;;;;;;2.00;1.25;;;;;11.71;44.99;96786.38;4727833;29;104681;-80
2021/01/29 10:02:24;;;;;;;;;2.00;2.00;;;;;11.71;45.12;96791.00;4722221;29;102888;-82
2021/01/29 10:05:00;;;;;;;;;1.50;1.50;;;;;11.72;45.27;96781.78;4725861;29;102941;-82
2021/01/29 10:07:27;;;;;;;;;3.00;3.00;;;;;11.70;45.30;96775.84;4728721;28;103039;-83
2021/01/29 10:10:04;;;;;;;;;3.00;2.00;;;;;11.71;44.89;96769.34;4717704;29;105703;-80
2021/01/29 10:12:33;;;;;;;;;3.00;3.00;;;;;11.73;44.81;96769.94;4665326;29;105644;-83
2021/01/29 10:15:11;;;;;;;;;3.00;2.00;;;;;11.73;45.50;96773.47;4715584;29;102938;-82
2021/01/29 10:17:54;;;;;;;;;2.00;1.75;;;;;11.76;45.12;96766.72;4718373;29;103014;-83
2021/01/29 10:20:26;;;;;;;;;3.00;1.25;;;;;11.77;45.54;96762.94;4712882;29;110485;-84
2021/01/29 10:22:58;;;;;;;;;3.00;2.00;;;;;11.78;45.23;96764.59;4725582;29;104337;-82
2021/01/29 10:25:35;;;;;;;;;1.00;1.00;;;;;11.78;45.03;96762.69;4719974;29;102965;-83
2021/01/29 10:28:28;;;;;;;;;2.50;1.25;;;;;11.77;44.82;96761.06;4725579;29;103037;-83
2021/01/29 10:31:05;;;;;;;;;2.75;2.75;;;;;11.78;45.06;96757.28;4717593;29;109259;-84
2021/01/29 10:33:34;;;;;;;;;2.00;1.00;;;;;11.77;44.75;96758.34;4727232;29;102931;-82
2021/01/29 10:36:08;;;;;;;;;2.75;1.75;;;;;11.82;45.11;96755.69;4713449;29;102925;-82
2021/01/29 10:38:41;;;;;;;;;4.50;2.25;;;;;11.88;45.59;96743.03;4723228;29;102964;-81
2021/01/29 10:41:17;;;;;;;;;3.00;2.00;;;;;11.94;45.38;96750.13;4713860;29;104258;-80
2021/01/29 10:43:48;;;;;;;;;1.75;1.75;;;;;11.95;45.45;96739.03;4712712;28;105332;-81
2021/01/29 10:46:27;;;;;;;;;0.00;0.00;;;;;11.95;45.96;96728.22;4720761;29;102874;-81
2021/01/29 10:49:10;;;;;;;;;4.25;4.00;;;;;11.95;45.81;96733.63;4717296;29;105973;-80
2021/01/29 10:51:59;;;;;;;;;4.00;3.25;;;;;11.98;46.22;96732.28;4692624;29;104661;-80
2021/01/29 10:54:33;;;;;;;;;4.25;3.00;;;;;11.99;46.84;96728.50;4719371;29;102931;-81
2021/01/29 10:57:06;;;;;;;;;5.00;4.25;;;;;12.00;47.14;96722.03;4723016;29;102899;-81
2021/01/29 10:59:45;;;;;;;;;4.75;3.75;;;;;12.00;46.99;96719.31;4727580;29;103098;-82
2021/01/29 11:02:14;;;;;;;;;4.25;3.50;;;;;12.00;46.91;96720.16;4724138;29;104342;-80
2021/01/29 11:04:45;;;;;;;;;6.50;3.50;;;;;12.00;46.72;96709.31;4721440;29;102810;-81
2021/01/29 11:07:23;;;;;;;;;4.00;4.00;;;;;12.01;46.46;96704.72;4694494;29;102990;-81
2021/01/29 11:09:56;;;;;;;;;4.75;3.75;;;;;12.01;46.56;96704.72;4720296;29;103035;-81
2021/01/29 11:12:30;;;;;;;;;5.00;4.00;;;;;12.01;46.73;96699.28;4714758;29;109614;-81
2021/01/29 11:15:11;;;;;;;;;4.00;4.00;;;;;12.01;46.62;96693.88;4719226;29;103218;-81
2021/01/29 11:18:10;;;;;;;;;4.00;3.00;;;;;12.00;46.22;96693.06;4721637;29;102869;-81
2021/01/29 11:20:37;;;;;;;;;4.00;3.25;;;;;12.01;46.71;96693.88;4659918;29;102985;-80
2021/01/29 11:23:20;;;;;;;;;9.25;4.75;;;;;12.00;46.20;96684.94;4696929;29;104425;-81
2021/01/29 11:26:07;;;;;;;;;4.25;4.00;;;;;12.02;46.42;96684.69;4710912;29;103481;-84
2021/01/29 11:28:51;;;;;;;;;4.25;4.00;;;;;12.01;46.05;96681.16;4662317;29;105171;-81
2021/01/29 11:31:34;;;;;;;;;6.00;3.50;;;;;12.02;46.03;96673.84;4718182;29;104825;-81
2021/01/29 11:34:01;;;;;;;;;4.25;3.75;;;;;12.03;46.61;96667.34;4671619;29;109077;-81
2021/01/29 11:36:35;;;;;;;;;4.25;4.00;;;;;12.02;46.18;96661.09;4713035;29;103560;-81
2021/01/29 11:39:08;;;;;;;;;3.00;3.00;;;;;12.04;46.47;96663.56;4717821;29;102804;-81
2021/01/29 11:41:56;;;;;;;;;6.50;3.25;;;;;12.04;46.19;96660.84;4717435;29;103036;-81
2021/01/29 11:44:36;;;;;;;;;6.00;3.50;;;;;12.05;45.96;96654.38;4713177;29;108914;-81
2021/01/29 11:47:07;;;;;;;;;4.00;3.00;;;;;12.04;45.83;96640.00;4621698;29;103864;-81
2021/01/29 11:49:38;;;;;;;;;4.25;4.00;;;;;12.04;46.01;96628.34;4716429;29;104076;-81
2021/01/29 11:52:16;;;;;;;;;5.50;4.50;;;;;12.02;45.81;96631.28;4706438;29;103105;-81
2021/01/29 11:55:38;;;;;;;;;6.25;5.25;;;;;12.02;45.45;96616.97;4720474;29;104117;-81
2021/01/29 11:58:10;;;;;;;;;5.50;4.25;;;;;12.02;45.66;96612.34;4647705;29;102936;-81
2021/01/29 12:00:42;;;;;;;;;4.50;4.50;;;;;12.02;45.50;96614.25;4714200;29;102703;-81
2021/01/29 12:03:22;;;;;;;;;4.75;2.50;;;;;12.03;45.72;96618.56;4719512;29;102959;-81
2021/01/29 12:05:52;;;;;;;;;7.50;4.25;;;;;12.02;45.58;96606.13;4719052;29;104347;-81
2021/01/29 12:08:57;;;;;;;;;4.00;4.00;;;;;12.02;45.47;96609.63;4723856;29;102902;-81
2021/01/29 12:11:32;;;;;;;;;6.50;4.00;;;;;12.01;45.39;96609.91;4629951;29;103014;-81
2021/01/29 12:14:14;;;;;;;;;5.00;3.75;;;;;12.00;45.70;96602.84;4721616;29;103030;-81
2021/01/29 12:16:41;;;;;;;;;5.00;5.00;;;;;12.00;45.55;96594.72;4723895;29;104129;-81
2021/01/29 12:19:08;;;;;;;;;5.50;4.75;;;;;12.00;45.55;96595.53;4718005;29;103266;-81
2021/01/29 12:21:49;;;;;;;;;5.25;5.00;;;;;11.99;45.92;96587.66;4720083;29;105157;-81
2021/01/29 12:24:21;;;;;;;;;5.50;4.75;;;;;11.99;45.17;96582.25;4698727;29;103073;-81